sensor_id;sensor_type;location;lat;lon;timestamp;temperature;humidity
57030;DHT22;42920;45.306;20.448;2023-04-24T00:00:31;384.50;2329.60
57030;DHT22;42920;45.306;20.448;2023-04-24T00:02:57;384.50;2329.60
57030;DHT22;42920;45.306;20.448;2023-04-24T00:05:25;384.50;2329.60
57030;DHT22;42920;45.306;20.448;2023-04-24T00:07:50;384.50;2329.60
57030;DHT22;42920;45.306;20.448;2023-04-24T00:10:19;384.40;2329.60
57030;DHT22;42920;45.306;20.448;2023-04-24T00:12:45;384.40;2329.60
57030;DHT22;42920;45.306;20.448;2023-04-24T00:15:10;384.40;2329.60
57030;DHT22;42920;45.306;20.448;2023-04-24T00:17:36;384.40;2329.60
57030;DHT22;42920;45.306;20.448;2023-04-24T00:20:02;384.30;2329.60
57030;DHT22;42920;45.306;20.448;2023-04-24T00:22:30;384.40;2329.60
57030;DHT22;42920;45.306;20.448;2023-04-24T00:24:56;384.40;2329.60
57030;DHT22;42920;45.306;20.448;2023-04-24T00:27:22;384.40;2329.60
57030;DHT22;42920;45.306;20.448;2023-04-24T00:29:47;384.40;2329.60
57030;DHT22;42920;45.306;20.448;2023-04-24T00:32:13;384.40;2329.60
57030;DHT22;42920;45.306;20.448;2023-04-24T00:34:39;384.40;2329.60
57030;DHT22;42920;45.306;20.448;2023-04-24T00:37:04;384.50;2329.60
57030;DHT22;42920;45.306;20.448;2023-04-24T00:39:30;384.60;2329.60
57030;DHT22;42920;45.306;20.448;2023-04-24T00:41:56;384.70;2329.60
57030;DHT22;42920;45.306;20.448;2023-04-24T00:44:22;384.70;2329.60
57030;DHT22;42920;45.306;20.448;2023-04-24T00:46:47;384.70;2329.60
57030;DHT22;42920;45.306;20.448;2023-04-24T00:49:20;384.70;2329.60
57030;DHT22;42920;45.306;20.448;2023-04-24T00:51:46;384.70;2329.60
57030;DHT22;42920;45.306;20.448;2023-04-24T00:54:12;384.70;2329.60
57030;DHT22;42920;45.306;20.448;2023-04-24T00:56:38;384.70;2329.60
57030;DHT22;42920;45.306;20.448;2023-04-24T00:59:03;384.70;2329.60
57030;DHT22;42920;45.306;20.448;2023-04-24T01:01:30;384.30;2329.60
57030;DHT22;42920;45.306;20.448;2023-04-24T01:03:55;384.40;2329.60
57030;DHT22;42920;45.306;20.448;2023-04-24T01:06:22;384.40;2329.60
57030;DHT22;42920;45.306;20.448;2023-04-24T01:08:48;384.30;2329.60
57030;DHT22;42920;45.306;20.448;2023-04-24T01:11:14;384.30;2329.60
57030;DHT22;42920;45.306;20.448;2023-04-24T01:13:40;384.20;2329.60
57030;DHT22;42920;45.306;20.448;2023-04-24T01:16:06;384.20;2329.60
57030;DHT22;42920;45.306;20.448;2023-04-24T01:18:31;384.20;2329.60
57030;DHT22;42920;45.306;20.448;2023-04-24T01:20:58;384.10;2329.60
57030;DHT22;42920;45.306;20.448;2023-04-24T01:23:24;384.10;2329.60
57030;DHT22;42920;45.306;20.448;2023-04-24T01:25:50;384.10;2329.60
57030;DHT22;42920;45.306;20.448;2023-04-24T01:28:16;384.00;2329.60
57030;DHT22;42920;45.306;20.448;2023-04-24T01:30:42;384.00;2329.60
57030;DHT22;42920;45.306;20.448;2023-04-24T01:33:08;384.00;2329.60
57030;DHT22;42920;45.306;20.448;2023-04-24T01:35:33;384.00;2329.60
57030;DHT22;42920;45.306;20.448;2023-04-24T01:38:01;384.00;2329.60
57030;DHT22;42920;45.306;20.448;2023-04-24T01:40:27;384.00;2329.60
57030;DHT22;42920;45.306;20.448;2023-04-24T01:42:52;384.10;2329.60
57030;DHT22;42920;45.306;20.448;2023-04-24T01:45:18;384.20;2329.60
57030;DHT22;42920;45.306;20.448;2023-04-24T01:47:44;384.20;2329.60
57030;DHT22;42920;45.306;20.448;2023-04-24T01:50:10;384.20;2329.60
57030;DHT22;42920;45.306;20.448;2023-04-24T01:52:36;384.20;2329.60
57030;DHT22;42920;45.306;20.448;2023-04-24T01:55:04;384.20;2329.60
57030;DHT22;42920;45.306;20.448;2023-04-24T01:57:31;384.20;2329.60
57030;DHT22;42920;45.306;20.448;2023-04-24T01:59:56;384.30;2329.60
57030;DHT22;42920;45.306;20.448;2023-04-24T02:02:22;384.30;2329.60
57030;DHT22;42920;45.306;20.448;2023-04-24T02:04:49;384.40;2329.60
57030;DHT22;42920;45.306;20.448;2023-04-24T02:07:15;384.40;2329.60
57030;DHT22;42920;45.306;20.448;2023-04-24T02:09:40;384.30;2329.60
57030;DHT22;42920;45.306;20.448;2023-04-24T02:12:06;384.40;2329.60
57030;DHT22;42920;45.306;20.448;2023-04-24T02:14:32;384.40;2329.60
57030;DHT22;42920;45.306;20.448;2023-04-24T02:16:57;384.40;2329.60
57030;DHT22;42920;45.306;20.448;2023-04-24T02:19:23;384.40;2329.60
57030;DHT22;42920;45.306;20.448;2023-04-24T02:21:48;384.20;2329.60
57030;DHT22;42920;45.306;20.448;2023-04-24T02:24:14;384.10;2329.60
57030;DHT22;42920;45.306;20.448;2023-04-24T02:26:39;384.00;2329.60
57030;DHT22;42920;45.306;20.448;2023-04-24T02:29:05;359.30;2329.60
57030;DHT22;42920;45.306;20.448;2023-04-24T02:31:30;359.30;2329.60
57030;DHT22;42920;45.306;20.448;2023-04-24T02:33:56;359.20;2329.60
57030;DHT22;42920;45.306;20.448;2023-04-24T02:36:22;359.20;2329.60
57030;DHT22;42920;45.306;20.448;2023-04-24T02:38:47;359.10;2329.60
57030;DHT22;42920;45.306;20.448;2023-04-24T02:41:13;359.20;2329.60
57030;DHT22;42920;45.306;20.448;2023-04-24T02:43:38;359.30;2329.60
57030;DHT22;42920;45.306;20.448;2023-04-24T02:46:04;384.00;2329.60
57030;DHT22;42920;45.306;20.448;2023-04-24T02:48:29;384.00;2329.60
57030;DHT22;42920;45.306;20.448;2023-04-24T02:50:55;384.00;2329.60
57030;DHT22;42920;45.306;20.448;2023-04-24T02:53:21;384.00;2329.60
57030;DHT22;42920;45.306;20.448;2023-04-24T02:55:46;384.00;2329.60
57030;DHT22;42920;45.306;20.448;2023-04-24T02:58:12;359.30;2329.60
57030;DHT22;42920;45.306;20.448;2023-04-24T03:00:38;359.30;2329.60
57030;DHT22;42920;45.306;20.448;2023-04-24T03:03:04;384.50;2329.60
57030;DHT22;42920;45.306;20.448;2023-04-24T03:05:30;359.30;2329.60
57030;DHT22;42920;45.306;20.448;2023-04-24T03:07:56;359.20;2329.60
57030;DHT22;42920;45.306;20.448;2023-04-24T03:10:21;359.20;2329.60
57030;DHT22;42920;45.306;20.448;2023-04-24T03:12:50;359.10;2329.60
57030;DHT22;42920;45.306;20.448;2023-04-24T03:15:16;359.10;2329.60
57030;DHT22;42920;45.306;20.448;2023-04-24T03:17:41;359.20;2329.60
57030;DHT22;42920;45.306;20.448;2023-04-24T03:20:07;359.20;2329.60
57030;DHT22;42920;45.306;20.448;2023-04-24T03:22:33;359.30;2329.60
57030;DHT22;42920;45.306;20.448;2023-04-24T03:24:59;359.30;2329.60
57030;DHT22;42920;45.306;20.448;2023-04-24T03:27:25;359.30;2329.60
57030;DHT22;42920;45.306;20.448;2023-04-24T03:29:50;359.30;2329.60
57030;DHT22;42920;45.306;20.448;2023-04-24T03:32:23;384.00;2329.60
57030;DHT22;42920;45.306;20.448;2023-04-24T03:34:48;384.20;2329.60
57030;DHT22;42920;45.306;20.448;2023-04-24T03:37:15;384.20;2329.60
57030;DHT22;42920;45.306;20.448;2023-04-24T03:39:41;384.00;2329.60
57030;DHT22;42920;45.306;20.448;2023-04-24T03:42:06;359.30;2329.60
57030;DHT22;42920;45.306;20.448;2023-04-24T03:44:33;359.20;2329.60
57030;DHT22;42920;45.306;20.448;2023-04-24T03:46:59;384.10;2329.60
57030;DHT22;42920;45.306;20.448;2023-04-24T03:49:25;384.00;2329.60
57030;DHT22;42920;45.306;20.448;2023-04-24T03:51:51;384.00;2329.60
57030;DHT22;42920;45.306;20.448;2023-04-24T03:54:17;359.30;2329.60
57030;DHT22;42920;45.306;20.448;2023-04-24T03:56:43;359.20;2329.60
57030;DHT22;42920;45.306;20.448;2023-04-24T03:59:08;359.00;2329.60
57030;DHT22;42920;45.306;20.448;2023-04-24T04:01:34;359.00;2329.60
57030;DHT22;42920;45.306;20.448;2023-04-24T04:04:05;359.00;2329.60
57030;DHT22;42920;45.306;20.448;2023-04-24T04:06:31;359.20;2329.60
57030;DHT22;42920;45.306;20.448;2023-04-24T04:08:57;384.00;2329.60
57030;DHT22;42920;45.306;20.448;2023-04-24T04:11:23;359.30;2329.60
57030;DHT22;42920;45.306;20.448;2023-04-24T04:13:48;359.10;2329.60
57030;DHT22;42920;45.306;20.448;2023-04-24T04:16:14;359.00;2329.60
57030;DHT22;42920;45.306;20.448;2023-04-24T04:18:42;358.80;2329.60
57030;DHT22;42920;45.306;20.448;2023-04-24T04:21:07;358.70;2329.60
57030;DHT22;42920;45.306;20.448;2023-04-24T04:23:33;358.50;2329.60
57030;DHT22;42920;45.306;20.448;2023-04-24T04:25:58;358.40;2329.60
57030;DHT22;42920;45.306;20.448;2023-04-24T04:28:25;333.70;2329.60
57030;DHT22;42920;45.306;20.448;2023-04-24T04:30:50;358.40;2329.60
57030;DHT22;42920;45.306;20.448;2023-04-24T04:33:21;358.50;2329.60
57030;DHT22;42920;45.306;20.448;2023-04-24T04:35:47;358.50;2329.60
57030;DHT22;42920;45.306;20.448;2023-04-24T04:38:17;358.60;2329.60
57030;DHT22;42920;45.306;20.448;2023-04-24T04:40:43;358.60;2329.60
57030;DHT22;42920;45.306;20.448;2023-04-24T04:43:09;358.60;2329.60
57030;DHT22;42920;45.306;20.448;2023-04-24T04:45:35;358.50;2329.60
57030;DHT22;42920;45.306;20.448;2023-04-24T04:48:01;358.60;2329.60
57030;DHT22;42920;45.306;20.448;2023-04-24T04:50:27;358.60;2329.60
57030;DHT22;42920;45.306;20.448;2023-04-24T04:52:53;358.50;2329.60
57030;DHT22;42920;45.306;20.448;2023-04-24T04:55:18;358.60;2329.60
57030;DHT22;42920;45.306;20.448;2023-04-24T04:57:47;358.50;2329.60
57030;DHT22;42920;45.306;20.448;2023-04-24T05:00:12;358.60;2329.60
57030;DHT22;42920;45.306;20.448;2023-04-24T05:02:39;358.60;2329.60
57030;DHT22;42920;45.306;20.448;2023-04-24T05:05:05;358.60;2329.60
57030;DHT22;42920;45.306;20.448;2023-04-24T05:07:31;358.70;2329.60
57030;DHT22;42920;45.306;20.448;2023-04-24T05:09:56;358.80;2329.60
57030;DHT22;42920;45.306;20.448;2023-04-24T05:12:22;358.80;2329.60
57030;DHT22;42920;45.306;20.448;2023-04-24T05:14:47;358.80;2329.60
57030;DHT22;42920;45.306;20.448;2023-04-24T05:17:13;358.70;2329.60
57030;DHT22;42920;45.306;20.448;2023-04-24T05:19:38;358.80;2329.60
57030;DHT22;42920;45.306;20.448;2023-04-24T05:22:04;358.90;2329.60
57030;DHT22;42920;45.306;20.448;2023-04-24T05:24:34;358.90;2329.60
57030;DHT22;42920;45.306;20.448;2023-04-24T05:27:00;358.80;2329.60
57030;DHT22;42920;45.306;20.448;2023-04-24T05:29:27;358.80;2329.60
57030;DHT22;42920;45.306;20.448;2023-04-24T05:31:53;358.80;2329.60
57030;DHT22;42920;45.306;20.448;2023-04-24T05:34:18;358.80;2329.60
57030;DHT22;42920;45.306;20.448;2023-04-24T05:36:44;358.70;2329.60
57030;DHT22;42920;45.306;20.448;2023-04-24T05:39:09;358.80;2329.60
57030;DHT22;42920;45.306;20.448;2023-04-24T05:41:35;358.90;2329.60
57030;DHT22;42920;45.306;20.448;2023-04-24T05:44:01;358.90;2329.60
57030;DHT22;42920;45.306;20.448;2023-04-24T05:46:26;358.90;2329.60
57030;DHT22;42920;45.306;20.448;2023-04-24T05:48:52;358.90;2329.60
57030;DHT22;42920;45.306;20.448;2023-04-24T05:51:17;359.00;2329.60
57030;DHT22;42920;45.306;20.448;2023-04-24T05:53:43;359.10;2329.60
57030;DHT22;42920;45.306;20.448;2023-04-24T05:56:08;359.20;2329.60
57030;DHT22;42920;45.306;20.448;2023-04-24T05:58:34;384.00;2329.60
57030;DHT22;42920;45.306;20.448;2023-04-24T06:01:00;384.10;2329.60
57030;DHT22;42920;45.306;20.448;2023-04-24T06:03:27;384.30;2329.60
57030;DHT22;42920;45.306;20.448;2023-04-24T06:05:53;384.40;2329.60
57030;DHT22;42920;45.306;20.448;2023-04-24T06:08:18;384.50;2329.60
57030;DHT22;42920;45.306;20.448;2023-04-24T06:10:44;384.60;2329.60
57030;DHT22;42920;45.306;20.448;2023-04-24T06:13:10;384.80;2329.60
57030;DHT22;42920;45.306;20.448;2023-04-24T06:15:36;384.70;2329.60
57030;DHT22;42920;45.306;20.448;2023-04-24T06:18:02;384.70;2329.60
57030;DHT22;42920;45.306;20.448;2023-04-24T06:20:28;384.70;2329.60
57030;DHT22;42920;45.306;20.448;2023-04-24T06:22:53;384.70;2329.60
57030;DHT22;42920;45.306;20.448;2023-04-24T06:25:19;384.90;2329.60
57030;DHT22;42920;45.306;20.448;2023-04-24T06:27:45;409.60;2355.20
57030;DHT22;42920;45.306;20.448;2023-04-24T06:30:10;409.90;2355.20
57030;DHT22;42920;45.306;20.448;2023-04-24T06:32:36;410.20;2355.20
57030;DHT22;42920;45.306;20.448;2023-04-24T06:35:01;410.40;2355.20
57030;DHT22;42920;45.306;20.448;2023-04-24T06:37:27;410.30;2355.20
57030;DHT22;42920;45.306;20.448;2023-04-24T06:39:53;410.30;2355.20
57030;DHT22;42920;45.306;20.448;2023-04-24T06:42:18;410.30;2355.20
57030;DHT22;42920;45.306;20.448;2023-04-24T06:44:46;410.20;2355.20
57030;DHT22;42920;45.306;20.448;2023-04-24T06:47:11;410.00;2355.20
57030;DHT22;42920;45.306;20.448;2023-04-24T06:49:39;410.00;2355.20
57030;DHT22;42920;45.306;20.448;2023-04-24T06:52:05;410.00;2355.20
57030;DHT22;42920;45.306;20.448;2023-04-24T06:54:31;409.90;2355.20
57030;DHT22;42920;45.306;20.448;2023-04-24T06:56:58;409.90;2355.20
57030;DHT22;42920;45.306;20.448;2023-04-24T06:59:24;409.90;2355.20
57030;DHT22;42920;45.306;20.448;2023-04-24T07:01:49;409.70;2355.20
57030;DHT22;42920;45.306;20.448;2023-04-24T07:04:16;409.70;2355.20
57030;DHT22;42920;45.306;20.448;2023-04-24T07:06:42;409.60;2355.20
57030;DHT22;42920;45.306;20.448;2023-04-24T07:09:08;384.90;2329.60
57030;DHT22;42920;45.306;20.448;2023-04-24T07:11:34;384.70;2329.60
57030;DHT22;42920;45.306;20.448;2023-04-24T07:14:02;384.40;2329.60
57030;DHT22;42920;45.306;20.448;2023-04-24T07:16:27;384.00;2329.60
57030;DHT22;42920;45.306;20.448;2023-04-24T07:18:53;384.00;2329.60
57030;DHT22;42920;45.306;20.448;2023-04-24T07:21:19;384.10;2329.60
57030;DHT22;42920;45.306;20.448;2023-04-24T07:23:44;384.10;2329.60
57030;DHT22;42920;45.306;20.448;2023-04-24T07:26:10;384.10;2329.60
57030;DHT22;42920;45.306;20.448;2023-04-24T07:28:36;384.00;2329.60
57030;DHT22;42920;45.306;20.448;2023-04-24T07:31:01;359.30;2329.60
57030;DHT22;42920;45.306;20.448;2023-04-24T07:33:27;359.20;2329.60
57030;DHT22;42920;45.306;20.448;2023-04-24T07:35:52;359.30;2329.60
57030;DHT22;42920;45.306;20.448;2023-04-24T07:38:18;359.30;2329.60
57030;DHT22;42920;45.306;20.448;2023-04-24T07:40:47;359.20;2329.60
57030;DHT22;42920;45.306;20.448;2023-04-24T07:43:13;359.20;2329.60
57030;DHT22;42920;45.306;20.448;2023-04-24T07:45:39;359.30;2329.60
57030;DHT22;42920;45.306;20.448;2023-04-24T07:48:04;384.00;2329.60
57030;DHT22;42920;45.306;20.448;2023-04-24T07:50:30;384.10;2329.60
57030;DHT22;42920;45.306;20.448;2023-04-24T07:52:56;384.10;2329.60
57030;DHT22;42920;45.306;20.448;2023-04-24T07:55:21;384.10;2329.60
57030;DHT22;42920;45.306;20.448;2023-04-24T07:57:47;384.10;2329.60
57030;DHT22;42920;45.306;20.448;2023-04-24T08:00:12;384.20;2329.60
57030;DHT22;42920;45.306;20.448;2023-04-24T08:02:38;384.30;2329.60
57030;DHT22;42920;45.306;20.448;2023-04-24T08:05:04;384.40;2329.60
57030;DHT22;42920;45.306;20.448;2023-04-24T08:07:30;384.50;2329.60
57030;DHT22;42920;45.306;20.448;2023-04-24T08:09:55;384.50;2329.60
57030;DHT22;42920;45.306;20.448;2023-04-24T08:12:21;384.50;2329.60
57030;DHT22;42920;45.306;20.448;2023-04-24T08:14:46;384.40;2329.60
57030;DHT22;42920;45.306;20.448;2023-04-24T08:17:12;384.20;2329.60
57030;DHT22;42920;45.306;20.448;2023-04-24T08:19:39;384.10;2329.60
57030;DHT22;42920;45.306;20.448;2023-04-24T08:22:07;384.00;2329.60
57030;DHT22;42920;45.306;20.448;2023-04-24T08:24:33;384.00;2329.60
57030;DHT22;42920;45.306;20.448;2023-04-24T08:26:58;384.00;2329.60
57030;DHT22;42920;45.306;20.448;2023-04-24T08:29:24;384.00;2329.60
57030;DHT22;42920;45.306;20.448;2023-04-24T08:31:50;384.10;2329.60
57030;DHT22;42920;45.306;20.448;2023-04-24T08:34:15;384.20;2329.60
57030;DHT22;42920;45.306;20.448;2023-04-24T08:36:41;384.20;2329.60
57030;DHT22;42920;45.306;20.448;2023-04-24T08:39:07;384.30;2329.60
57030;DHT22;42920;45.306;20.448;2023-04-24T08:41:33;384.40;2329.60
57030;DHT22;42920;45.306;20.448;2023-04-24T08:43:59;384.40;2329.60
57030;DHT22;42920;45.306;20.448;2023-04-24T08:46:26;384.40;2329.60
57030;DHT22;42920;45.306;20.448;2023-04-24T08:48:52;384.70;2329.60
57030;DHT22;42920;45.306;20.448;2023-04-24T08:51:17;384.70;2329.60
57030;DHT22;42920;45.306;20.448;2023-04-24T08:53:43;384.70;2329.60
57030;DHT22;42920;45.306;20.448;2023-04-24T08:56:09;384.80;2329.60
57030;DHT22;42920;45.306;20.448;2023-04-24T08:58:34;384.90;2329.60
57030;DHT22;42920;45.306;20.448;2023-04-24T09:01:00;384.90;2329.60
57030;DHT22;42920;45.306;20.448;2023-04-24T09:03:27;409.60;2355.20
57030;DHT22;42920;45.306;20.448;2023-04-24T09:05:53;409.60;2355.20
57030;DHT22;42920;45.306;20.448;2023-04-24T09:08:20;409.70;2355.20
57030;DHT22;42920;45.306;20.448;2023-04-24T09:10:49;409.70;2355.20
57030;DHT22;42920;45.306;20.448;2023-04-24T09:13:14;409.70;2355.20
57030;DHT22;42920;45.306;20.448;2023-04-24T09:15:40;409.70;2355.20
57030;DHT22;42920;45.306;20.448;2023-04-24T09:18:06;409.70;2355.20
57030;DHT22;42920;45.306;20.448;2023-04-24T09:20:32;409.70;2355.20
57030;DHT22;42920;45.306;20.448;2023-04-24T09:22:58;409.70;2355.20
57030;DHT22;42920;45.306;20.448;2023-04-24T09:25:33;409.80;2355.20
57030;DHT22;42920;45.306;20.448;2023-04-24T09:28:02;409.80;2355.20
57030;DHT22;42920;45.306;20.448;2023-04-24T09:30:28;409.90;2355.20
57030;DHT22;42920;45.306;20.448;2023-04-24T09:33:09;410.10;2355.20
57030;DHT22;42920;45.306;20.448;2023-04-24T09:35:35;410.20;2355.20
57030;DHT22;42920;45.306;20.448;2023-04-24T09:38:01;410.20;2355.20
57030;DHT22;42920;45.306;20.448;2023-04-24T09:40:26;410.40;2355.20
57030;DHT22;42920;45.306;20.448;2023-04-24T09:42:53;435.20;2355.20
57030;DHT22;42920;45.306;20.448;2023-04-24T09:45:19;435.30;2355.20
57030;DHT22;42920;45.306;20.448;2023-04-24T09:47:45;435.60;2355.20
57030;DHT22;42920;45.306;20.448;2023-04-24T09:52:39;436.10;2355.20
57030;DHT22;42920;45.306;20.448;2023-04-24T09:55:10;460.90;2380.80
57030;DHT22;42920;45.306;20.448;2023-04-24T09:57:35;460.80;2380.80
57030;DHT22;42920;45.306;20.448;2023-04-24T10:00:01;460.90;2380.80
57030;DHT22;42920;45.306;20.448;2023-04-24T10:02:27;436.10;2355.20
57030;DHT22;42920;45.306;20.448;2023-04-24T10:04:57;436.00;2355.20
57030;DHT22;42920;45.306;20.448;2023-04-24T10:07:27;436.00;2355.20
57030;DHT22;42920;45.306;20.448;2023-04-24T10:09:53;435.90;2355.20
57030;DHT22;42920;45.306;20.448;2023-04-24T10:12:19;435.90;2355.20
57030;DHT22;42920;45.306;20.448;2023-04-24T10:14:45;435.90;2355.20
57030;DHT22;42920;45.306;20.448;2023-04-24T10:17:11;435.80;2355.20
57030;DHT22;42920;45.306;20.448;2023-04-24T10:19:37;435.70;2355.20
57030;DHT22;42920;45.306;20.448;2023-04-24T10:22:03;435.60;2355.20
57030;DHT22;42920;45.306;20.448;2023-04-24T10:24:29;435.60;2355.20
57030;DHT22;42920;45.306;20.448;2023-04-24T10:26:55;435.60;2355.20
57030;DHT22;42920;45.306;20.448;2023-04-24T10:29:22;435.60;2355.20
57030;DHT22;42920;45.306;20.448;2023-04-24T10:31:48;435.60;2355.20
57030;DHT22;42920;45.306;20.448;2023-04-24T10:34:15;435.50;2355.20
57030;DHT22;42920;45.306;20.448;2023-04-24T10:36:43;435.40;2355.20
57030;DHT22;42920;45.306;20.448;2023-04-24T10:39:11;435.40;2355.20
57030;DHT22;42920;45.306;20.448;2023-04-24T10:41:37;435.30;2355.20
57030;DHT22;42920;45.306;20.448;2023-04-24T10:44:13;435.30;2355.20
57030;DHT22;42920;45.306;20.448;2023-04-24T10:46:39;435.20;2355.20
57030;DHT22;42920;45.306;20.448;2023-04-24T10:49:07;435.20;2355.20
57030;DHT22;42920;45.306;20.448;2023-04-24T10:54:25;435.40;2355.20
57030;DHT22;42920;45.306;20.448;2023-04-24T10:56:51;435.60;2355.20
57030;DHT22;42920;45.306;20.448;2023-04-24T10:59:24;435.70;2355.20
57030;DHT22;42920;45.306;20.448;2023-04-24T11:01:53;435.70;2355.20
57030;DHT22;42920;45.306;20.448;2023-04-24T11:04:28;435.70;2355.20
57030;DHT22;42920;45.306;20.448;2023-04-24T11:06:54;435.80;2355.20
57030;DHT22;42920;45.306;20.448;2023-04-24T11:09:20;435.70;2355.20
57030;DHT22;42920;45.306;20.448;2023-04-24T11:11:46;435.70;2355.20
57030;DHT22;42920;45.306;20.448;2023-04-24T11:14:15;435.70;2355.20
57030;DHT22;42920;45.306;20.448;2023-04-24T11:21:47;435.70;2355.20
57030;DHT22;42920;45.306;20.448;2023-04-24T11:24:23;435.60;2355.20
57030;DHT22;42920;45.306;20.448;2023-04-24T11:26:50;435.50;2355.20
57030;DHT22;42920;45.306;20.448;2023-04-24T11:29:16;435.50;2355.20
57030;DHT22;42920;45.306;20.448;2023-04-24T11:31:44;435.50;2355.20
57030;DHT22;42920;45.306;20.448;2023-04-24T11:34:17;435.50;2355.20
57030;DHT22;42920;45.306;20.448;2023-04-24T11:36:43;435.60;2355.20
57030;DHT22;42920;45.306;20.448;2023-04-24T11:39:09;435.60;2355.20
57030;DHT22;42920;45.306;20.448;2023-04-24T11:41:35;435.60;2355.20
57030;DHT22;42920;45.306;20.448;2023-04-24T11:44:01;435.60;2355.20
57030;DHT22;42920;45.306;20.448;2023-04-24T11:46:28;435.70;2355.20
57030;DHT22;42920;45.306;20.448;2023-04-24T11:48:55;435.70;2355.20
57030;DHT22;42920;45.306;20.448;2023-04-24T11:51:22;435.80;2355.20
57030;DHT22;42920;45.306;20.448;2023-04-24T11:53:47;435.70;2355.20
57030;DHT22;42920;45.306;20.448;2023-04-24T11:56:16;435.70;2355.20
57030;DHT22;42920;45.306;20.448;2023-04-24T11:58:42;435.70;2355.20
57030;DHT22;42920;45.306;20.448;2023-04-24T12:01:08;435.70;2355.20
57030;DHT22;42920;45.306;20.448;2023-04-24T12:03:33;435.70;2355.20
57030;DHT22;42920;45.306;20.448;2023-04-24T12:06:07;435.60;2355.20
57030;DHT22;42920;45.306;20.448;2023-04-24T12:08:33;435.60;2355.20
57030;DHT22;42920;45.306;20.448;2023-04-24T12:11:00;435.60;2355.20
57030;DHT22;42920;45.306;20.448;2023-04-24T12:13:26;435.60;2355.20
57030;DHT22;42920;45.306;20.448;2023-04-24T12:15:51;435.60;2355.20
57030;DHT22;42920;45.306;20.448;2023-04-24T12:18:17;435.70;2355.20
57030;DHT22;42920;45.306;20.448;2023-04-24T12:20:43;435.70;2355.20
57030;DHT22;42920;45.306;20.448;2023-04-24T12:23:09;435.80;2355.20
57030;DHT22;42920;45.306;20.448;2023-04-24T12:25:34;435.80;2355.20
57030;DHT22;42920;45.306;20.448;2023-04-24T12:30:29;435.90;2355.20
57030;DHT22;42920;45.306;20.448;2023-04-24T12:32:57;435.90;2355.20
57030;DHT22;42920;45.306;20.448;2023-04-24T12:35:23;435.90;2355.20
57030;DHT22;42920;45.306;20.448;2023-04-24T12:37:49;435.90;2355.20
57030;DHT22;42920;45.306;20.448;2023-04-24T12:40:15;435.90;2355.20
57030;DHT22;42920;45.306;20.448;2023-04-24T12:42:45;435.90;2355.20
57030;DHT22;42920;45.306;20.448;2023-04-24T12:45:11;435.90;2355.20
57030;DHT22;42920;45.306;20.448;2023-04-24T12:47:40;436.00;2355.20
57030;DHT22;42920;45.306;20.448;2023-04-24T12:50:06;460.80;2380.80
57030;DHT22;42920;45.306;20.448;2023-04-24T12:52:32;436.10;2355.20
57030;DHT22;42920;45.306;20.448;2023-04-24T12:54:58;460.80;2380.80
57030;DHT22;42920;45.306;20.448;2023-04-24T12:57:25;460.80;2380.80
57030;DHT22;42920;45.306;20.448;2023-04-24T12:59:53;460.80;2380.80
57030;DHT22;42920;45.306;20.448;2023-04-24T13:02:18;460.80;2380.80
57030;DHT22;42920;45.306;20.448;2023-04-24T13:04:45;436.10;2355.20
57030;DHT22;42920;45.306;20.448;2023-04-24T13:07:11;436.00;2355.20
57030;DHT22;42920;45.306;20.448;2023-04-24T13:09:37;435.90;2355.20
57030;DHT22;42920;45.306;20.448;2023-04-24T13:12:03;435.90;2355.20
57030;DHT22;42920;45.306;20.448;2023-04-24T13:14:31;435.90;2355.20
57030;DHT22;42920;45.306;20.448;2023-04-24T13:16:56;435.90;2355.20
57030;DHT22;42920;45.306;20.448;2023-04-24T13:19:23;435.90;2355.20
57030;DHT22;42920;45.306;20.448;2023-04-24T13:21:49;435.90;2355.20
57030;DHT22;42920;45.306;20.448;2023-04-24T13:24:15;435.80;2355.20
57030;DHT22;42920;45.306;20.448;2023-04-24T13:26:41;435.80;2355.20
57030;DHT22;42920;45.306;20.448;2023-04-24T13:29:06;435.80;2355.20
57030;DHT22;42920;45.306;20.448;2023-04-24T13:31:32;435.80;2355.20
57030;DHT22;42920;45.306;20.448;2023-04-24T13:33:57;435.80;2355.20
57030;DHT22;42920;45.306;20.448;2023-04-24T13:36:23;435.70;2355.20
57030;DHT22;42920;45.306;20.448;2023-04-24T13:38:49;435.70;2355.20
57030;DHT22;42920;45.306;20.448;2023-04-24T13:41:14;435.70;2355.20
57030;DHT22;42920;45.306;20.448;2023-04-24T13:43:40;435.80;2355.20
57030;DHT22;42920;45.306;20.448;2023-04-24T13:46:07;435.90;2355.20
57030;DHT22;42920;45.306;20.448;2023-04-24T13:48:33;435.90;2355.20
57030;DHT22;42920;45.306;20.448;2023-04-24T13:50:58;435.90;2355.20
57030;DHT22;42920;45.306;20.448;2023-04-24T13:53:24;435.90;2355.20
57030;DHT22;42920;45.306;20.448;2023-04-24T13:55:50;435.80;2355.20
57030;DHT22;42920;45.306;20.448;2023-04-24T13:58:15;435.70;2355.20
57030;DHT22;42920;45.306;20.448;2023-04-24T14:00:41;435.60;2355.20
57030;DHT22;42920;45.306;20.448;2023-04-24T14:03:06;435.50;2355.20
57030;DHT22;42920;45.306;20.448;2023-04-24T14:05:32;435.50;2355.20
57030;DHT22;42920;45.306;20.448;2023-04-24T14:07:58;435.50;2355.20
57030;DHT22;42920;45.306;20.448;2023-04-24T14:10:23;435.50;2355.20
57030;DHT22;42920;45.306;20.448;2023-04-24T14:12:49;435.50;2355.20
57030;DHT22;42920;45.306;20.448;2023-04-24T14:15:14;435.50;2355.20
57030;DHT22;42920;45.306;20.448;2023-04-24T14:17:40;435.50;2355.20
57030;DHT22;42920;45.306;20.448;2023-04-24T14:20:06;435.50;2355.20
57030;DHT22;42920;45.306;20.448;2023-04-24T14:22:32;435.60;2355.20
57030;DHT22;42920;45.306;20.448;2023-04-24T14:24:58;435.80;2355.20
57030;DHT22;42920;45.306;20.448;2023-04-24T14:27:24;435.70;2355.20
57030;DHT22;42920;45.306;20.448;2023-04-24T14:29:49;435.80;2355.20
57030;DHT22;42920;45.306;20.448;2023-04-24T14:32:15;435.90;2355.20
57030;DHT22;42920;45.306;20.448;2023-04-24T14:34:41;435.90;2355.20
57030;DHT22;42920;45.306;20.448;2023-04-24T14:37:07;436.00;2355.20
57030;DHT22;42920;45.306;20.448;2023-04-24T14:39:32;436.00;2355.20
57030;DHT22;42920;45.306;20.448;2023-04-24T14:41:58;436.00;2355.20